Nearby METAR Reports

 

KHOB - Hobbs, New Mexico, USA
Distance from station: S 40mi, 65km
Updated: Thu, 09-Jul-2020 1:50pm MDT
Clear
Clear
 Wind from S
Wind: S 9 mph , 15 km/h
Temperature: 102°F , 39°C
Dew Point: 48°F , 9°C
Humidity: 16%
Barometer: 29.92 inHg , 1013.2 hPa
Clouds: Clear
Visibility: 10 miles , 16 km
2020/07/09 19:50 KHOB 091950Z 19008KT 10SM SKC 39/09 A2992
KGNC - Seminole, Texas, USA
Distance from station: SE 55mi, 89km
Updated: Thu, 09-Jul-2020 2:35pm MDT
Clear
Clear
 Wind from S
Wind: S 10 mph , 17 km/h
Temperature: 106°F , 41°C
Dew Point: 52°F , 11°C
Humidity: 17%
Barometer: 29.92 inHg , 1013.2 hPa
Clouds: Clear
Visibility: 10 miles , 16 km
2020/07/09 20:35 KGNC 092035Z AUTO 17009KT 10SM CLR 41/11 A2992 RMK AO2 T04110113
 
KROW - Roswell, New Mexico, USA
Distance from station: W 67mi, 108km
Updated: Thu, 09-Jul-2020 1:51pm MDT
Clear
Clear
 Wind from ENE
Wind: ENE 9 mph , 15 km/h
Temperature: 109°F , 43°C
Dew Point: 36°F , 2°C
Humidity: 8%
Barometer: 29.90 inHg , 1012.5 hPa
Clouds: Clear
Visibility: 10 miles , 16 km
2020/07/09 19:51 KROW 091951Z 07008KT 10SM CLR 43/02 A2990 RMK AO2 SLP039 T04280017
KATS - Artesia, New Mexico, USA
Distance from station: WSW 71mi, 114km
Updated: Thu, 09-Jul-2020 2:35pm MDT
Clear
Clear
 Wind from ENE
Wind: ENE 10 mph , 17 km/h
Temperature: 106°F , 41°C
Dew Point: 41°F , 5°C
Humidity: 11%
Barometer: 29.90 inHg , 1012.5 hPa
Clouds: Clear
Visibility: 10 miles , 16 km
2020/07/09 20:35 KATS 092035Z AUTO 06009KT 020V090 10SM CLR 41/05 A2990 RMK AO2
 
KCVS - Cannon AFB,Clovis, New Mexico, USA
Distance from station: 0 78mi, 125km
Updated: Thu, 09-Jul-2020 1:56pm MDT
Mostly cloudy
Mostly cloudy
 Wind from NW
Wind: NW 10 mph , 17 km/h
Temperature: 100°F , 38°C
Dew Point: 34°F , 1°C
Humidity: 10%
Barometer: 29.97 inHg , 1014.9 hPa
Clouds: Mostly cloudy
Visibility: 10 miles , 16 km
Cloud details: Mostly cloudy 15000 ft
2020/07/09 19:56 KCVS 091956Z AUTO 32009KT 10SM BKN150 38/01 A2997 RMK AO2 SLP071 T03780009 $
KE11 - Andrews, Texas, USA
Distance from station: SE 78mi, 126km
Updated: Thu, 09-Jul-2020 2:35pm MDT
Clear
Clear
 Wind from S
Wind: S 10 mph , 17 km/h, Gust: 17 mph , 28 km/h
Temperature: 108°F , 42°C
Dew Point: 52°F , 11°C
Humidity: 16%
Barometer: 29.89 inHg , 1012.2 hPa
Clouds: Clear
Visibility: 10 miles , 16 km
2020/07/09 20:35 KE11 092035Z AUTO 18009G15KT 10SM CLR 42/11 A2989 RMK AO2 T04160108
 
KCNM - Carlsbad, New Mexico, USA
Distance from station: SW 82mi, 132km
Updated: Thu, 09-Jul-2020 1:53pm MDT
Clear
Clear
 Wind from calm
Wind: Calm
Temperature: 106°F , 41°C
Dew Point: 39°F , 4°C
Humidity: 10%
Barometer: 29.87 inHg , 1011.5 hPa
Clouds: Clear
Visibility: 10 miles , 16 km
2020/07/09 19:53 KCNM 091953Z AUTO 00000KT 10SM CLR 41/04 A2987 RMK AO2 SLP045 T04060044
KCVN - Clovis Muni, New Mexico, USA
Distance from station: N 83mi, 133km
Updated: Thu, 09-Jul-2020 1:56pm MDT
Clear
Clear
 Wind from NW
Wind: NW 9 mph , 15 km/h
Temperature: 102°F , 39°C
Dew Point: 37°F , 3°C
Humidity: 11%
Barometer: 29.96 inHg , 1014.6 hPa
Clouds: Clear
Visibility: 10 miles , 16 km
2020/07/09 19:56 KCVN 091956Z AUTO 32008KT 10SM CLR 39/03 A2996 RMK AO2 SLP083 T03890033
 
KLBB - Lubbock, Texas, USA
Distance from station: ENE 92mi, 149km
Updated: Thu, 09-Jul-2020 1:53pm MDT
Few Clouds
Few Clouds
 Wind from SSW
Wind: SSW 10 mph , 17 km/h, Gust: 23 mph , 37 km/h
Temperature: 102°F , 39°C
Dew Point: 59°F , 15°C
Humidity: 24%
Barometer: 29.89 inHg , 1012.2 hPa
Clouds: Few Clouds
Visibility: 10 miles , 16 km
Cloud details: Few Clouds 13000 ft
Few Clouds 16000 ft
Few Clouds 20000 ft
2020/07/09 19:53 KLBB 091953Z 20009G20KT 10SM FEW130 FEW160 FEW200 39/15 A2989 RMK AO2 SLP055 MDT CU DSNT N T03890150
KINK - Wink, Texas, USA
Distance from station: S 101mi, 163km
Updated: Thu, 09-Jul-2020 1:53pm MDT
Clear
Clear
 Wind from S
Wind: S 7 mph , 11 km/h
Temperature: 106°F , 41°C
Dew Point: 55°F , 13°C
Humidity: 19%
Barometer: 29.84 inHg , 1010.5 hPa
Clouds: Clear
Visibility: 10 miles , 16 km
2020/07/09 19:53 KINK 091953Z AUTO 19006KT 10SM CLR 41/13 A2984 RMK AO2 SLP045 T04110128
 
KMAF - Midland, Texas, USA
Distance from station: SE 111mi, 179km
Updated: Thu, 09-Jul-2020 1:53pm MDT
Clear
Clear
 Wind from S
Wind: S 9 mph , 15 km/h, Gust: 23 mph , 37 km/h
Temperature: 100°F , 38°C
Dew Point: 59°F , 15°C
Humidity: 25%
Barometer: 29.88 inHg , 1011.9 hPa
Clouds: Clear
Visibility: 10 miles , 16 km
2020/07/09 19:53 KMAF 091953Z 18008G20KT 10SM CLR 38/15 A2988 RMK AO2 SLP060 T03830150
KSRR - Sierra B/Ruidoso, New Mexico, USA
Distance from station: W 127mi, 204km
Updated: Thu, 09-Jul-2020 2:35pm MDT
Clear
Clear
 Wind from NE
Wind: NE 7 mph , 11 km/h
Temperature: 91°F , 33°C
Dew Point: 32°F , 0°C
Humidity: 12%
Barometer: 30.24 inHg , 1024 hPa
Clouds: Clear
Visibility: 10 miles , 16 km
2020/07/09 20:35 KSRR 092035Z AUTO 05006KT 10SM CLR 33/00 A3024 RMK AO2
 
KGDP - Guadalupe Pass, Texas, USA
Distance from station: SW 130mi, 209km
Updated: Thu, 09-Jul-2020 1:51pm MDT
Clear
Clear
 Wind from varies
Wind: varies 6 mph , 9 km/h
Temperature: 93°F , 34°C
Dew Point: 45°F , 7°C
Humidity: 19%
Barometer: 30.12 inHg , 1020 hPa
Clouds: Clear
Visibility: 9 miles , 14 km
2020/07/09 19:51 KGDP 091951Z AUTO VRB05KT 9SM CLR 34/07 A3012 RMK AO2 SLP090 T03390067